Time;durP1;ratioP1;P1;durP2;ratioP2;P2;SDS_P1;SDS_P2;PMS_P1;PMS_P2;Temp;Humidity;BMP_temperature;BMP_pressure;BME280_temperature;BME280_humidity;BME280_pressure;Samples;Min_cycle;Max_cycle;Signal;HPM_P1;HPM_P2
2023/07/09 00:00:18;;;;;;;10.30;5.60;;;;;;;16.77;100.00;100771.48;1440249;89;21515;-86
2023/07/09 00:02:45;;;;;;;11.70;6.50;;;;;;;16.74;100.00;100770.47;1450451;89;21427;-86
2023/07/09 00:05:15;;;;;;;15.00;6.80;;;;;;;16.68;100.00;100779.52;1452891;90;21537;-86
2023/07/09 00:07:41;;;;;;;11.35;5.87;;;;;;;16.63;100.00;100776.58;1450846;89;21576;-85
2023/07/09 00:10:20;;;;;;;7.93;6.17;;;;;;;16.55;100.00;100779.31;1436323;90;21333;-86
2023/07/09 00:12:47;;;;;;;9.27;4.17;;;;;;;16.51;100.00;100780.66;1458688;89;21920;-84
2023/07/09 00:15:15;;;;;;;8.13;5.27;;;;;;;16.49;100.00;100782.70;1451879;89;21325;-85
2023/07/09 00:17:42;;;;;;;13.77;6.03;;;;;;;16.46;100.00;100780.38;1448549;89;21671;-86
2023/07/09 00:20:18;;;;;;;8.80;5.03;;;;;;;16.41;100.00;100781.41;1452482;89;21368;-87
2023/07/09 00:22:54;;;;;;;10.53;5.07;;;;;;;16.39;100.00;100778.07;1446617;89;22463;-87
2023/07/09 00:25:21;;;;;;;7.63;4.83;;;;;;;16.36;100.00;100774.42;1461394;89;21376;-88
2023/07/09 00:27:49;;;;;;;7.93;4.20;;;;;;;16.32;100.00;100776.63;1452343;89;22314;-87
2023/07/09 00:30:23;;;;;;;7.57;4.37;;;;;;;16.30;100.00;100781.81;1451191;89;21434;-88
2023/07/09 00:32:52;;;;;;;8.03;4.90;;;;;;;16.24;100.00;100778.83;1454514;89;21578;-86
2023/07/09 00:35:19;;;;;;;6.50;4.47;;;;;;;16.22;100.00;100781.34;1446085;89;21435;-85
2023/07/09 00:37:47;;;;;;;8.03;4.50;;;;;;;16.18;100.00;100779.53;1447672;89;21346;-83
2023/07/09 00:40:22;;;;;;;10.63;4.10;;;;;;;16.14;100.00;100787.58;1456223;89;21567;-86
2023/07/09 00:42:52;;;;;;;7.83;5.07;;;;;;;16.10;100.00;100777.41;1455568;89;21420;-85
2023/07/09 00:45:23;;;;;;;13.88;4.58;;;;;;;16.06;100.00;100779.61;1452266;88;22299;-83
2023/07/09 00:48:00;;;;;;;6.27;4.47;;;;;;;16.05;100.00;100775.26;1453849;90;21325;-86
2023/07/09 00:50:46;;;;;;;10.47;4.90;;;;;;;16.03;100.00;100777.30;1450776;89;21958;-85
2023/07/09 00:53:23;;;;;;;8.63;4.17;;;;;;;16.03;100.00;100776.47;1450125;89;21434;-86
2023/07/09 00:56:06;;;;;;;9.97;5.00;;;;;;;16.02;100.00;100780.95;1454241;89;21435;-87
2023/07/09 00:58:35;;;;;;;9.70;5.40;;;;;;;16.01;100.00;100773.95;1455331;89;21634;-86
2023/07/09 01:01:06;;;;;;;9.20;5.20;;;;;;;15.99;100.00;100770.11;1441316;89;21376;-85
2023/07/09 01:03:42;;;;;;;11.00;4.70;;;;;;;15.95;100.00;100771.98;1449787;88;22417;-87
2023/07/09 01:06:10;;;;;;;10.77;6.17;;;;;;;15.92;100.00;100767.00;1459811;89;22491;-86
2023/07/09 01:08:41;;;;;;;11.07;6.10;;;;;;;15.92;100.00;100764.33;1452177;89;21361;-87
2023/07/09 01:11:21;;;;;;;9.63;6.10;;;;;;;15.89;100.00;100760.17;1448216;89;21486;-87
2023/07/09 01:13:54;;;;;;;9.63;5.13;;;;;;;15.88;100.00;100765.66;1452529;89;21368;-87
2023/07/09 01:16:23;;;;;;;10.97;6.13;;;;;;;15.86;100.00;100763.70;1460385;89;21756;-86
2023/07/09 01:18:51;;;;;;;10.45;5.70;;;;;;;15.86;100.00;100759.69;1454705;89;21353;-85
2023/07/09 01:21:18;;;;;;;13.43;5.67;;;;;;;15.88;100.00;100764.33;1447167;90;21360;-84
2023/07/09 01:23:47;;;;;;;9.77;5.60;;;;;;;15.87;100.00;100766.17;1449186;89;21353;-85
2023/07/09 01:26:21;;;;;;;13.77;5.73;;;;;;;15.85;100.00;100766.84;1456230;89;21523;-86
2023/07/09 01:28:48;;;;;;;10.70;6.00;;;;;;;15.81;100.00;100765.54;1444632;89;21619;-85
2023/07/09 01:31:15;;;;;;;12.67;5.73;;;;;;;15.76;100.00;100767.38;1450166;90;21391;-85
2023/07/09 01:33:46;;;;;;;15.40;6.10;;;;;;;15.71;100.00;100771.09;1453641;89;21434;-85
2023/07/09 01:36:17;;;;;;;12.98;4.70;;;;;;;15.68;100.00;100771.44;1448237;90;21391;-87
2023/07/09 01:38:44;;;;;;;12.33;4.97;;;;;;;15.66;100.00;100769.41;1451885;89;21456;-86
2023/07/09 01:41:14;;;;;;;9.77;6.40;;;;;;;15.65;100.00;100769.09;1445596;90;21376;-84
2023/07/09 01:43:41;;;;;;;9.10;5.37;;;;;;;15.64;100.00;100767.41;1451620;89;22248;-86
2023/07/09 01:46:09;;;;;;;7.90;4.70;;;;;;;15.62;100.00;100768.58;1442487;88;21361;-87
2023/07/09 01:48:44;;;;;;;10.17;5.83;;;;;;;15.55;100.00;100767.11;1447024;89;21413;-86
2023/07/09 01:51:13;;;;;;;7.23;4.50;;;;;;;15.50;100.00;100773.45;1443684;89;22336;-86
2023/07/09 01:53:41;;;;;;;14.13;5.40;;;;;;;15.45;100.00;100772.65;1451775;89;22299;-87
2023/07/09 01:56:07;;;;;;;8.33;5.87;;;;;;;15.43;100.00;100768.48;1447759;89;21331;-87
2023/07/09 01:58:34;;;;;;;9.80;5.13;;;;;;;15.42;100.00;100771.66;1448831;88;22499;-86
2023/07/09 02:01:00;;;;;;;8.00;5.23;;;;;;;15.42;100.00;100776.14;1451821;89;21376;-85
2023/07/09 02:03:26;;;;;;;10.10;4.90;;;;;;;15.43;100.00;100776.48;1451498;89;21390;-85
2023/07/09 02:05:54;;;;;;;6.80;4.83;;;;;;;15.41;100.00;100777.16;1450525;89;22293;-83
2023/07/09 02:08:20;;;;;;;9.07;5.33;;;;;;;15.40;100.00;100776.83;1451738;89;21568;-86
2023/07/09 02:10:50;;;;;;;11.17;5.07;;;;;;;15.39;100.00;100779.15;1448557;89;21368;-87
2023/07/09 02:13:17;;;;;;;7.83;4.95;;;;;;;15.39;100.00;100775.14;1458854;89;22292;-85
2023/07/09 02:15:44;;;;;;;12.27;6.40;;;;;;;15.39;100.00;100783.14;1453616;90;21368;-85
2023/07/09 02:18:12;;;;;;;8.03;4.53;;;;;;;15.38;100.00;100782.83;1443860;89;21651;-86
2023/07/09 02:20:38;;;;;;;7.60;5.33;;;;;;;15.37;100.00;100784.66;1458362;89;21339;-85
2023/07/09 02:23:08;;;;;;;14.07;5.07;;;;;;;15.40;100.00;100786.16;1445566;89;22322;-84
2023/07/09 02:25:35;;;;;;;9.93;5.03;;;;;;;15.39;100.00;100790.64;1445854;88;21420;-84
2023/07/09 02:28:01;;;;;;;7.83;5.43;;;;;;;15.40;100.00;100790.16;1444930;89;21353;-83
2023/07/09 02:30:27;;;;;;;8.77;5.73;;;;;;;15.39;100.00;100795.15;1453468;90;21571;-83
2023/07/09 02:32:54;;;;;;;23.47;5.80;;;;;;;15.37;100.00;100793.17;1445320;89;22270;-85
2023/07/09 02:35:24;;;;;;;8.67;5.20;;;;;;;15.35;100.00;100794.16;1437688;90;21434;-84
2023/07/09 02:37:50;;;;;;;9.85;5.17;;;;;;;15.35;100.00;100790.16;1451382;89;22577;-85
2023/07/09 02:40:17;;;;;;;12.33;5.10;;;;;;;15.37;100.00;100790.51;1450310;89;21508;-83
2023/07/09 02:42:43;;;;;;;12.30;5.90;;;;;;;15.34;100.00;100800.50;1445620;89;21361;-83
2023/07/09 02:45:11;;;;;;;9.13;6.07;;;;;;;15.37;100.00;100795.33;1461875;89;21433;-84
2023/07/09 02:47:37;;;;;;;11.80;5.70;;;;;;;15.38;100.00;100796.98;1444512;89;21449;-84
2023/07/09 02:50:04;;;;;;;10.33;5.80;;;;;;;15.37;100.00;100797.17;1448870;88;21360;-85
2023/07/09 02:52:30;;;;;;;11.83;5.40;;;;;;;15.35;100.00;100798.16;1445898;88;21582;-88
2023/07/09 02:54:57;;;;;;;10.63;5.73;;;;;;;15.33;100.00;100801.52;1454030;88;21471;-86
2023/07/09 02:57:23;;;;;;;11.67;5.00;;;;;;;15.32;100.00;100812.34;1441707;90;22350;-84
2023/07/09 02:59:49;;;;;;;8.30;4.90;;;;;;;15.32;100.00;100813.67;1455902;88;21442;-85
2023/07/09 03:02:15;;;;;;;7.43;5.03;;;;;;;15.31;100.00;100812.02;1455991;88;21545;-86
2023/07/09 03:04:42;;;;;;;9.97;5.23;;;;;;;15.28;100.00;100806.52;1450185;90;21414;-87
2023/07/09 03:07:08;;;;;;;9.97;5.27;;;;;;;15.24;100.00;100809.17;1457741;88;21552;-86
2023/07/09 03:09:34;;;;;;;9.33;6.03;;;;;;;15.22;100.00;100807.67;1454530;88;21309;-85
2023/07/09 03:12:00;;;;;;;8.40;5.33;;;;;;;15.18;100.00;100804.52;1459041;90;21515;-85
2023/07/09 03:14:27;;;;;;;7.53;4.63;;;;;;;15.16;100.00;100803.84;1450298;88;21345;-85
2023/07/09 03:16:53;;;;;;;7.33;4.70;;;;;;;15.16;100.00;100806.51;1452204;88;21309;-85
2023/07/09 03:19:19;;;;;;;11.40;5.53;;;;;;;15.19;100.00;100802.20;1447693;88;21448;-84
2023/07/09 03:21:45;;;;;;;8.23;5.57;;;;;;;15.23;100.00;100802.69;1454817;88;21605;-85
2023/07/09 03:24:15;;;;;;;9.10;5.73;;;;;;;15.26;100.00;100805.84;1454267;89;21384;-85
2023/07/09 03:26:40;;;;;;;7.23;5.67;;;;;;;15.29;100.00;100809.50;1450109;88;21404;-84
2023/07/09 03:29:06;;;;;;;9.53;5.80;;;;;;;15.32;100.00;100806.50;1450249;88;21863;-83
2023/07/09 03:31:34;;;;;;;11.27;5.80;;;;;;;15.30;100.00;100813.83;1439039;89;21346;-83
2023/07/09 03:34:00;;;;;;;6.07;4.50;;;;;;;15.29;100.00;100810.02;1447177;89;21354;-86
2023/07/09 03:36:27;;;;;;;9.77;4.67;;;;;;;15.29;100.00;100807.34;1453271;90;22619;-84
2023/07/09 03:38:53;;;;;;;5.03;3.40;;;;;;;15.29;100.00;100805.50;1454328;88;21464;-85
2023/07/09 03:41:19;;;;;;;7.53;3.80;;;;;;;15.33;100.00;100797.52;1450208;88;21531;-86
2023/07/09 03:43:49;;;;;;;7.90;4.27;;;;;;;15.39;100.00;100796.48;1456998;88;21449;-85
2023/07/09 03:46:15;;;;;;;9.10;4.20;;;;;;;15.45;100.00;100802.47;1446489;89;21487;-85
2023/07/09 03:48:42;;;;;;;5.80;4.63;;;;;;;15.47;100.00;100801.30;1449495;88;21509;-84
2023/07/09 03:51:08;;;;;;;7.23;4.90;;;;;;;15.50;100.00;100804.13;1453642;89;21360;-85
2023/07/09 03:53:34;;;;;;;9.63;4.87;;;;;;;15.51;100.00;100803.97;1457702;89;21375;-85
2023/07/09 03:56:00;;;;;;;14.33;5.20;;;;;;;15.53;100.00;100805.95;1452416;90;22233;-85
2023/07/09 03:58:27;;;;;;;6.87;4.30;;;;;;;15.59;100.00;100811.10;1450460;88;21508;-85
2023/07/09 04:00:54;;;;;;;7.47;4.40;;;;;;;15.60;100.00;100807.45;1446652;89;21427;-81
2023/07/09 04:03:22;;;;;;;8.63;4.80;;;;;;;15.64;100.00;100817.27;1443741;89;21420;-83
2023/07/09 04:05:49;;;;;;;6.87;5.03;;;;;;;15.65;100.00;100811.78;1454037;89;21545;-85
2023/07/09 04:08:16;;;;;;;7.40;4.97;;;;;;;15.66;100.00;100814.77;1453493;89;22240;-84
2023/07/09 04:10:42;;;;;;;6.20;4.93;;;;;;;15.69;100.00;100814.45;1453309;89;21706;-84
2023/07/09 04:13:08;;;;;;;15.23;7.17;;;;;;;15.66;100.00;100817.44;1451711;89;21397;-83
2023/07/09 04:15:35;;;;;;;9.30;5.60;;;;;;;15.66;100.00;100816.61;1446749;89;21375;-84
2023/07/09 04:18:02;;;;;;;11.90;5.03;;;;;;;15.69;100.00;100817.13;1452099;89;21530;-84
2023/07/09 04:20:28;;;;;;;16.13;6.00;;;;;;;15.75;100.00;100820.44;1449651;89;21398;-83
2023/07/09 04:22:54;;;;;;;13.10;4.97;;;;;;;15.82;100.00;100818.41;1450955;89;21614;-84
2023/07/09 04:25:20;;;;;;;11.20;6.33;;;;;;;15.93;100.00;100822.86;1453194;89;21325;-83
2023/07/09 04:27:46;;;;;;;8.43;5.77;;;;;;;16.04;100.00;100821.66;1449692;89;21619;-84
2023/07/09 04:30:15;;;;;;;9.67;6.23;;;;;;;16.11;100.00;100822.64;1445813;89;21398;-85
2023/07/09 04:32:43;;;;;;;8.40;6.33;;;;;;;16.20;100.00;100821.59;1444372;89;22390;-82
2023/07/09 04:35:11;;;;;;;7.70;5.70;;;;;;;16.31;100.00;100827.53;1456165;89;21361;-82
2023/07/09 04:37:39;;;;;;;13.00;6.03;;;;;;;16.46;100.00;100826.63;1459941;89;21585;-84
2023/07/09 04:40:10;;;;;;;10.37;5.53;;;;;;;16.65;100.00;100832.50;1450029;89;21406;-83
2023/07/09 04:42:35;;;;;;;12.47;5.45;;;;;;;16.84;100.00;100833.91;1456830;89;21619;-84
2023/07/09 04:45:02;;;;;;;10.03;5.50;;;;;;;17.04;100.00;100835.09;1443661;89;21508;-84
2023/07/09 04:47:28;;;;;;;7.50;5.17;;;;;;;17.21;100.00;100831.77;1443527;89;22410;-83
2023/07/09 04:49:54;;;;;;;14.50;5.03;;;;;;;17.41;100.00;100829.92;1452137;90;21515;-82
2023/07/09 04:52:22;;;;;;;14.00;5.43;;;;;;;17.57;100.00;100829.73;1457012;89;21390;-84
2023/07/09 04:54:50;;;;;;;10.50;5.77;;;;;;;17.74;100.00;100825.03;1450385;89;21331;-83
2023/07/09 04:57:17;;;;;;;15.07;6.73;;;;;;;17.90;100.00;100827.56;1450295;89;22373;-86
2023/07/09 04:59:44;;;;;;;8.40;6.03;;;;;;;18.03;100.00;100833.08;1445212;89;21442;-85
2023/07/09 05:02:11;;;;;;;11.60;5.10;;;;;;;18.17;100.00;100832.73;1451384;89;21567;-87
2023/07/09 05:04:37;;;;;;;7.80;5.73;;;;;;;18.30;99.54;100830.74;1450376;89;21376;-87
2023/07/09 05:07:04;;;;;;;9.40;4.90;;;;;;;18.44;99.30;100840.59;1450810;89;22278;-85
2023/07/09 05:09:30;;;;;;;7.20;6.20;;;;;;;18.61;99.05;100843.02;1449898;89;22492;-88
2023/07/09 05:11:56;;;;;;;9.63;5.80;;;;;;;18.78;98.61;100840.44;1457412;89;21443;-88
2023/07/09 05:14:22;;;;;;;6.60;5.75;;;;;;;18.94;97.96;100837.51;1454423;89;21353;-88
2023/07/09 05:16:49;;;;;;;6.20;4.83;;;;;;;19.10;97.50;100840.94;1453058;89;21538;-89
2023/07/09 05:19:17;;;;;;;8.73;5.80;;;;;;;19.21;96.05;100838.25;1449218;89;21472;-88
2023/07/09 05:21:43;;;;;;;11.78;5.12;;;;;;;19.31;95.73;100836.89;1451816;89;21567;-86
2023/07/09 05:24:10;;;;;;;12.05;5.35;;;;;;;19.41;94.67;100841.08;1454261;88;21375;-86
2023/07/09 05:26:38;;;;;;;8.75;5.05;;;;;;;19.50;94.20;100842.59;1455814;88;21391;-88
2023/07/09 05:29:07;;;;;;;5.35;4.55;;;;;;;19.59;93.32;100841.41;1458977;88;21464;-88
2023/07/09 05:31:34;;;;;;;7.97;4.93;;;;;;;19.68;92.28;100841.63;1449686;89;21427;-93
2023/07/09 05:34:00;;;;;;;8.65;5.15;;;;;;;19.75;91.33;100846.50;1458214;89;21376;-88
2023/07/09 05:36:28;;;;;;;9.65;6.12;;;;;;;19.90;92.33;100844.20;1456184;89;21367;-91
2023/07/09 05:38:55;;;;;;;9.30;6.08;;;;;;;20.03;91.72;100846.97;1450615;89;21506;-85
2023/07/09 05:41:23;;;;;;;10.95;7.80;;;;;;;20.18;91.56;100845.48;1453641;89;21354;-86
2023/07/09 05:43:52;;;;;;;;;;;;;;;20.34;91.02;100841.59;1456805;89;21625;-84
2023/07/09 05:46:19;;;;;;;19.77;12.63;;;;;;;20.47;90.40;100834.92;1451611;89;20424;-85
2023/07/09 05:48:45;;;;;;;20.80;13.38;;;;;;;20.58;88.41;100844.30;1465272;89;21353;-84
2023/07/09 05:51:13;;;;;;;21.82;13.13;;;;;;;20.62;87.79;100842.33;1445993;89;21368;-84
2023/07/09 05:53:40;;;;;;;16.62;11.85;;;;;;;20.75;88.67;100846.10;1455849;89;22385;-85
2023/07/09 05:56:07;;;;;;;16.93;11.35;;;;;;;20.85;87.90;100841.13;1445554;90;21866;-88
2023/07/09 05:58:33;;;;;;;13.60;8.65;;;;;;;20.95;88.53;100837.02;1445697;89;22367;-87
2023/07/09 06:00:59;;;;;;;9.20;6.33;;;;;;;21.08;88.42;100840.21;1456957;90;21475;-87
2023/07/09 06:03:27;;;;;;;10.00;4.55;;;;;;;21.22;85.28;100836.19;1454497;89;21309;-87
2023/07/09 06:05:53;;;;;;;9.03;5.25;;;;;;;21.38;86.08;100830.42;1446081;89;21354;-87
2023/07/09 06:08:21;;;;;;;5.03;4.37;;;;;;;21.56;84.27;100832.45;1454744;88;21427;-85
2023/07/09 06:10:55;;;;;;;5.72;4.47;;;;;;;21.67;81.95;100837.20;1449345;90;22404;-84
2023/07/09 06:13:21;;;;;;;7.03;4.20;;;;;;;21.83;82.02;100841.29;1451495;89;21368;-85
2023/07/09 06:15:50;;;;;;;7.70;4.75;;;;;;;22.01;81.56;100833.37;1444713;89;21449;-86
2023/07/09 06:18:17;;;;;;;6.92;3.87;;;;;;;22.19;81.43;100835.92;1454778;90;21471;-87
2023/07/09 06:20:50;;;;;;;7.55;4.62;;;;;;;22.38;81.57;100837.67;1452310;89;21505;-87
2023/07/09 06:23:17;;;;;;;9.15;4.15;;;;;;;22.46;79.94;100837.42;1450664;90;21449;-84
2023/07/09 06:25:48;;;;;;;6.62;4.53;;;;;;;22.57;79.81;100839.14;1446353;90;21434;-82
2023/07/09 06:28:16;;;;;;;5.37;4.05;;;;;;;22.72;79.94;100835.62;1455588;89;21375;-84
2023/07/09 06:30:43;;;;;;;11.12;5.08;;;;;;;22.89;79.03;100840.78;1455849;89;21317;-88
2023/07/09 06:33:11;;;;;;;5.35;3.77;;;;;;;23.05;78.37;100838.12;1453419;90;21531;-84
2023/07/09 06:35:37;;;;;;;5.08;3.90;;;;;;;23.18;77.40;100838.52;1459342;88;21390;-84
2023/07/09 06:38:03;;;;;;;10.55;4.50;;;;;;;23.33;77.29;100836.33;1450659;89;21485;-89
2023/07/09 06:40:30;;;;;;;7.83;4.00;;;;;;;23.53;77.24;100842.86;1453689;89;21354;-88
2023/07/09 06:42:57;;;;;;;5.00;3.55;;;;;;;23.64;73.53;100838.60;1450899;90;21509;-86
2023/07/09 06:45:24;;;;;;;5.70;3.70;;;;;;;23.61;68.27;100837.70;1450508;89;22840;-86
2023/07/09 06:47:50;;;;;;;5.03;3.22;;;;;;;23.61;68.28;100843.10;1457577;89;21301;-85
2023/07/09 06:50:17;;;;;;;14.07;4.45;;;;;;;23.67;71.01;100835.45;1451833;89;21588;-86
2023/07/09 06:52:43;;;;;;;7.05;4.17;;;;;;;23.79;71.26;100833.67;1448490;89;21442;-83
2023/07/09 06:55:09;;;;;;;6.47;3.55;;;;;;;23.89;70.92;100831.00;1455799;89;21405;-86
2023/07/09 06:57:35;;;;;;;5.00;3.87;;;;;;;23.93;69.49;100833.53;1453438;89;21448;-86
2023/07/09 07:00:03;;;;;;;4.72;3.62;;;;;;;24.06;70.40;100832.03;1449006;89;21398;-85
2023/07/09 07:02:29;;;;;;;5.55;3.20;;;;;;;24.22;70.35;100832.75;1450861;89;21493;-90
2023/07/09 07:04:56;;;;;;;6.10;3.17;;;;;;;24.38;70.33;100826.42;1453466;89;21361;-86
2023/07/09 07:07:22;;;;;;;3.72;2.92;;;;;;;24.56;69.86;100829.09;1443981;89;21562;-84
2023/07/09 07:09:48;;;;;;;8.55;3.77;;;;;;;24.71;69.34;100834.90;1457891;89;22292;-84
2023/07/09 07:12:26;;;;;;;7.08;3.08;;;;;;;24.83;68.76;100829.54;1452736;89;21287;-85
2023/07/09 07:14:54;;;;;;;6.33;3.22;;;;;;;24.95;68.83;100824.97;1447885;89;21414;-86
2023/07/09 07:17:21;;;;;;;9.15;3.60;;;;;;;25.09;68.72;100832.34;1452176;89;21390;-84
2023/07/09 07:19:47;;;;;;;7.85;3.98;;;;;;;25.23;68.86;100826.19;1455627;89;22321;-87
2023/07/09 07:22:14;;;;;;;6.00;3.42;;;;;;;25.20;65.80;100822.59;1450969;89;21383;-85
2023/07/09 07:24:40;;;;;;;6.00;3.60;;;;;;;25.21;66.44;100826.44;1450828;90;22284;-84
2023/07/09 07:27:09;;;;;;;6.37;3.10;;;;;;;25.27;66.47;100821.96;1439931;89;22285;-86
2023/07/09 07:29:35;;;;;;;5.25;3.02;;;;;;;25.35;65.17;100826.22;1449083;90;22013;-84
2023/07/09 07:32:01;;;;;;;6.08;2.72;;;;;;;25.47;66.14;100824.31;1453937;88;22345;-87
2023/07/09 07:34:27;;;;;;;4.70;3.20;;;;;;;25.56;64.92;100825.59;1448645;90;21353;-86
2023/07/09 07:36:53;;;;;;;4.37;2.72;;;;;;;25.65;64.88;100828.23;1445155;89;21360;-85
2023/07/09 07:39:19;;;;;;;9.10;3.20;;;;;;;25.76;64.84;100823.86;1455369;89;21548;-85
2023/07/09 07:46:32;;;;;;;9.93;3.00;;;;;;;25.93;63.11;100825.34;1448872;90;21493;-83
2023/07/09 07:49:14;;;;;;;3.67;2.85;;;;;;;26.05;63.34;100825.30;1442790;89;22350;-84
2023/07/09 07:51:40;;;;;;;3.75;2.98;;;;;;;26.22;62.92;100825.37;1450236;89;22379;-86
2023/07/09 07:54:10;;;;;;;7.00;3.08;;;;;;;26.40;63.18;100825.16;1448992;89;21566;-86
2023/07/09 08:03:39;;;;;;;6.22;2.87;;;;;;;26.67;57.74;100832.22;1455704;90;21449;-85
2023/07/09 08:06:06;;;;;;;4.25;2.70;;;;;;;26.77;60.27;100832.91;1453737;90;21339;-84
2023/07/09 08:08:32;;;;;;;3.17;2.87;;;;;;;26.83;60.24;100829.22;1456072;89;21412;-84
2023/07/09 08:11:07;;;;;;;5.25;3.77;;;;;;;26.95;60.20;100826.42;1450755;90;21375;-85
2023/07/09 08:13:35;;;;;;;5.97;3.25;;;;;;;27.01;59.60;100824.89;1451762;89;22292;-85
2023/07/09 08:16:06;;;;;;;4.47;3.75;;;;;;;27.13;59.44;100825.34;1445467;90;21515;-82
2023/07/09 08:18:32;;;;;;;4.80;3.30;;;;;;;27.10;57.68;100824.48;1442280;89;21967;-87
2023/07/09 08:21:00;;;;;;;3.83;3.25;;;;;;;26.90;56.70;100821.74;1454759;88;22962;-84
2023/07/09 08:23:35;;;;;;;4.53;2.90;;;;;;;26.93;58.36;100823.12;1453374;89;21852;-84
2023/07/09 08:26:03;;;;;;;3.90;2.67;;;;;;;27.10;58.50;100825.84;1448254;90;21369;-84
2023/07/09 08:28:30;;;;;;;7.03;3.12;;;;;;;27.31;58.33;100825.12;1446200;89;21368;-84
2023/07/09 08:34:57;;;;;;;3.40;3.02;;;;;;;27.60;58.91;100815.48;1447598;90;21552;-86
2023/07/09 08:37:23;;;;;;;3.40;2.75;;;;;;;27.76;58.74;100826.81;1440864;89;21745;-82
2023/07/09 08:39:49;;;;;;;9.18;3.00;;;;;;;27.90;58.51;100828.12;1446119;89;21435;-86
2023/07/09 08:42:38;;;;;;;5.10;2.85;;;;;;;28.05;57.41;100826.66;1449088;89;21443;-87
2023/07/09 08:45:25;;;;;;;5.72;3.00;;;;;;;28.04;56.11;100827.75;1444585;89;22226;-87
2023/07/09 08:48:27;;;;;;;4.65;3.17;;;;;;;28.12;56.73;100828.12;1444116;90;21464;-86
2023/07/09 08:51:11;;;;;;;6.45;3.30;;;;;;;28.27;56.78;100822.02;1432594;90;22471;-84
2023/07/09 08:53:51;;;;;;;5.60;3.25;;;;;;;28.48;56.20;100824.98;1442773;89;22122;-86
2023/07/09 08:56:18;;;;;;;4.80;2.77;;;;;;;28.55;55.75;100817.44;1447520;90;22315;-86
2023/07/09 08:58:46;;;;;;;6.58;2.80;;;;;;;28.57;45.47;100822.09;1442606;89;21464;-85
2023/07/09 09:01:23;;;;;;;5.83;2.65;;;;;;;28.54;42.36;100818.50;1440715;89;21450;-86
2023/07/09 09:04:13;;;;;;;4.67;2.80;;;;;;;28.66;42.44;100820.55;1455394;89;21663;-85
2023/07/09 09:06:42;;;;;;;6.42;3.02;;;;;;;28.82;41.87;100807.87;1448495;90;21579;-86
2023/07/09 09:09:40;;;;;;;3.22;2.92;;;;;;;28.96;41.44;100811.80;1444747;89;21957;-84
2023/07/09 09:12:21;;;;;;;3.17;2.45;;;;;;;29.03;40.86;100812.95;1450734;89;21485;-86
2023/07/09 09:14:58;;;;;;;3.60;2.22;;;;;;;29.03;37.88;100810.23;1453653;89;21593;-87
2023/07/09 09:17:28;;;;;;;8.58;3.12;;;;;;;29.07;38.64;100813.28;1452480;90;21570;-85
2023/07/09 09:19:58;;;;;;;3.87;2.52;;;;;;;29.05;37.80;100808.08;1447104;89;21486;-87
2023/07/09 09:22:49;;;;;;;6.92;2.77;;;;;;;29.16;39.59;100812.52;1449430;89;21479;-87
2023/07/09 09:25:27;;;;;;;5.03;2.77;;;;;;;29.27;39.35;100809.87;1447993;89;22031;-85
2023/07/09 09:27:53;;;;;;;7.25;2.92;;;;;;;29.39;38.47;100813.22;1452038;89;21435;-82
2023/07/09 09:30:23;;;;;;;6.87;3.00;;;;;;;29.35;36.79;100810.75;1446163;89;22315;-84
2023/07/09 09:32:54;;;;;;;6.75;3.10;;;;;;;29.46;37.42;100808.33;1449302;89;21346;-85
2023/07/09 09:35:31;;;;;;;10.58;3.12;;;;;;;29.53;36.96;100808.94;1455777;89;21575;-86
2023/07/09 09:37:59;;;;;;;3.47;2.27;;;;;;;29.62;35.13;100799.19;1452229;89;21515;-85
2023/07/09 09:40:29;;;;;;;3.22;2.65;;;;;;;29.73;35.36;100804.70;1450456;89;21353;-86
2023/07/09 09:42:59;;;;;;;6.72;3.12;;;;;;;29.82;35.34;100799.00;1443838;90;21968;-82
2023/07/09 09:45:30;;;;;;;4.78;2.40;;;;;;;29.78;35.09;100793.78;1444019;90;21427;-87
2023/07/09 09:48:00;;;;;;;6.60;2.65;;;;;;;29.80;35.38;100801.17;1452390;89;21547;-85
2023/07/09 09:50:32;;;;;;;4.60;2.65;;;;;;;29.82;32.88;100797.64;1452152;89;21493;-85
2023/07/09 09:53:01;;;;;;;5.28;2.33;;;;;;;29.83;33.83;100797.91;1457910;89;21346;-83
2023/07/09 09:55:32;;;;;;;8.20;2.98;;;;;;;29.94;34.20;100798.22;1446218;89;22395;-82
2023/07/09 09:57:59;;;;;;;3.85;2.90;;;;;;;29.96;33.17;100791.97;1452112;89;21524;-82
2023/07/09 10:00:28;;;;;;;5.08;2.80;;;;;;;30.08;33.47;100797.99;1455109;89;22844;-83
2023/07/09 10:03:01;;;;;;;4.80;2.80;;;;;;;30.07;32.48;100794.19;1448701;89;21509;-81
2023/07/09 10:05:36;;;;;;;6.25;2.70;;;;;;;30.06;32.66;100782.97;1456422;89;21552;-82
2023/07/09 10:08:40;;;;;;;4.40;2.85;;;;;;;30.26;33.89;100784.97;1451053;89;22536;-81
2023/07/09 10:11:33;;;;;;;4.62;2.60;;;;;;;30.41;32.85;100789.08;1449384;89;21523;-83
2023/07/09 10:14:05;;;;;;;4.15;2.52;;;;;;;30.41;32.10;100784.98;1449086;89;21522;-83
2023/07/09 10:16:45;;;;;;;3.75;2.72;;;;;;;30.43;33.69;100786.90;1440072;89;21397;-82
2023/07/09 10:19:36;;;;;;;7.15;2.80;;;;;;;30.31;30.25;100782.25;1451488;89;21412;-84
2023/07/09 10:22:09;;;;;;;2.87;2.40;;;;;;;30.20;31.24;100788.75;1445940;89;21410;-83
2023/07/09 10:24:53;;;;;;;3.45;2.50;;;;;;;30.38;31.01;100777.33;1453627;89;21405;-83
2023/07/09 10:27:28;;;;;;;5.10;2.10;;;;;;;30.60;32.58;100777.64;1443460;89;21568;-84
2023/07/09 10:30:16;;;;;;;3.62;2.20;;;;;;;30.92;32.70;100782.29;1443529;89;22291;-81
2023/07/09 10:33:10;;;;;;;13.05;6.50;;;;;;;31.17;32.62;100785.53;1452008;89;21849;-83
2023/07/09 10:35:47;;;;;;;6.70;2.35;;;;;;;31.20;31.90;100782.80;1453592;89;21346;-84
2023/07/09 10:38:19;;;;;;;2.85;2.00;;;;;;;31.09;30.06;100782.55;1451646;90;21523;-82
2023/07/09 10:40:57;;;;;;;3.15;2.50;;;;;;;30.77;26.85;100781.72;1460085;89;21604;-82
2023/07/09 10:43:40;;;;;;;16.82;10.80;;;;;;;30.89;29.83;100781.47;1458550;89;21560;-82
2023/07/09 10:46:20;;;;;;;11.28;10.13;;;;;;;30.97;30.31;100780.92;1454697;89;21479;-83
2023/07/09 10:48:51;;;;;;;8.18;4.45;;;;;;;31.09;31.30;100772.98;1454045;89;21523;-84
2023/07/09 10:51:39;;;;;;;3.70;2.45;;;;;;;31.00;29.37;100773.53;1458710;89;21426;-83
2023/07/09 10:54:17;;;;;;;3.80;2.58;;;;;;;31.08;29.99;100781.73;1455042;90;21560;-84
2023/07/09 10:56:46;;;;;;;3.98;1.90;;;;;;;31.24;30.08;100782.50;1447102;90;21316;-83
2023/07/09 10:59:31;;;;;;;;;;;;;;;31.36;28.74;100774.03;1453951;90;22336;-84
2023/07/09 11:04:49;;;;;;;2.90;2.17;;;;;;;31.38;28.60;100776.76;1508612;85;29297;-82
2023/07/09 11:07:21;;;;;;;5.45;2.55;;;;;;;31.29;29.39;100778.41;1473556;88;21414;-83
2023/07/09 11:09:49;;;;;;;4.28;2.50;;;;;;;31.16;29.21;100774.87;1450684;89;21728;-83
2023/07/09 11:12:21;;;;;;;6.35;2.50;;;;;;;31.13;29.74;100771.32;1460108;89;22314;-81
2023/07/09 11:14:58;;;;;;;4.72;2.55;;;;;;;31.29;30.06;100767.47;1461944;89;22783;-82
2023/07/09 11:17:28;;;;;;;4.20;2.30;;;;;;;31.52;30.17;100763.88;1461833;88;21589;-81
2023/07/09 11:19:57;;;;;;;7.45;2.25;;;;;;;31.69;29.98;100767.08;1485992;87;21545;-82
2023/07/09 11:22:37;;;;;;;8.15;2.72;;;;;;;31.72;29.04;100763.78;1484833;88;21551;-81
2023/07/09 11:25:13;;;;;;;6.45;2.22;;;;;;;31.75;29.07;100760.48;1489011;87;21583;-82
2023/07/09 11:27:52;;;;;;;5.78;3.22;;;;;;;31.82;28.54;100762.90;1482635;87;21397;-82
2023/07/09 11:30:23;;;;;;;4.33;2.20;;;;;;;31.88;28.88;100762.61;1475694;88;21470;-82
2023/07/09 11:32:59;;;;;;;3.20;2.20;;;;;;;31.87;28.38;100755.48;1486636;88;21463;-83
2023/07/09 11:35:29;;;;;;;7.50;2.50;;;;;;;31.90;28.74;100750.00;1469659;88;21433;-83
2023/07/09 11:38:00;;;;;;;6.62;2.20;;;;;;;31.85;28.30;100745.39;1480572;87;21411;-84
2023/07/09 11:40:26;;;;;;;4.03;2.60;;;;;;;31.70;27.32;100744.89;1455160;88;22357;-84
2023/07/09 11:42:58;;;;;;;3.22;2.10;;;;;;;31.67;29.00;100746.02;1440171;91;21599;-83
2023/07/09 11:45:35;;;;;;;7.28;2.50;;;;;;;31.75;29.15;100742.70;1440056;90;21480;-84
2023/07/09 11:48:28;;;;;;;3.33;2.37;;;;;;;31.89;29.86;100743.72;1429560;90;21555;-83
2023/07/09 11:50:57;;;;;;;4.10;2.40;;;;;;;32.06;29.23;100742.56;1429250;90;21512;-83